aviador You're here:

PAIK Decoded Metar

in _UNIDENTIFIED
Report Time2017-10-23 23:56:00
UTC Time2017-10-24 00:28:53
Flight Rules vfr VFR
Wind120° at 06 kt
W.Decomp.*RWY 06: 4.5 kt HW 4.0 kt RCW
W.Rank120° ranks 24
Current wind is below 120° avg. (6.0)
Visibility9656 m
Phenomena:Mist
Clouds:Scattered 041 Hf
Overcast 055 Hf
Expected CloudBase > 800 ft AGL from Temp-Dew spread
Ceiling5,500 ft
Temp-10°C (ISA -25)
Dew Point-12°C (85% RH)
AAT-15.4°C
QNH1012 hPa
Density Alt-2,848 ft
Elevation167 ft
Report Wrong Elevation
Raw Report
PAIK 232356Z AUTO 12006KT 6SM BR SCT041 OVC055 M10/M12 A2987 RMK
AO2 SLP121 60000 T11001122 11100 21156 58009 FZRANO=

Extra information for PAIK:More info

Metar Taf Metar & Taf Last 4 Metars F.Rules Stats Wind Profile Meteogram Temp Stats Metar ALERT Operation Metar Decoded Social comments